Time;durP1;ratioP1;P1;durP2;ratioP2;P2;SDS_P1;SDS_P2;PMS_P1;PMS_P2;Temp;Humidity;BMP_temperature;BMP_pressure;BME280_temperature;BME280_humidity;BME280_pressure;Samples;Min_cycle;Max_cycle;Signal;HPM_P1;HPM_P2
2022/06/01 00:00:29;;;;;;;15.15;11.43;;;;;;;;;;4969620;28;20511;-80
2022/06/01 00:02:55;;;;;;;13.80;11.55;;;;;;;;;;4957883;28;20905;-81
2022/06/01 00:05:21;;;;;;;15.43;11.23;;;;;;;;;;4958124;28;20481;-80
2022/06/01 00:07:48;;;;;;;14.67;11.00;;;;;;;;;;4962008;28;21012;-80
2022/06/01 00:10:14;;;;;;;12.77;11.23;;;;;;;;;;4941176;28;20718;-81
2022/06/01 00:12:41;;;;;;;14.63;11.52;;;;;;;;;;4939707;29;20430;-81
2022/06/01 00:15:08;;;;;;;15.10;11.93;;;11.60;99.90;;;;;;4956209;28;20426;-80
2022/06/01 00:17:34;;;;;;;14.02;11.73;;;;;;;;;;4936456;28;20506;-80
2022/06/01 00:20:00;;;;;;;14.13;12.17;;;;;;;;;;4919200;28;20934;-80
2022/06/01 00:22:26;;;;;;;16.88;12.15;;;;;;;;;;4934893;29;20488;-80
2022/06/01 00:24:53;;;;;;;16.58;12.23;;;;;;;;;;4936652;28;20433;-81
2022/06/01 00:27:19;;;;;;;14.80;11.68;;;;;;;;;;4956584;28;20432;-81
2022/06/01 00:29:45;;;;;;;15.82;12.20;;;;;;;;;;4943244;29;20435;-81
2022/06/01 00:32:12;;;;;;;16.23;13.00;;;;;;;;;;4947383;28;20463;-81
2022/06/01 00:34:39;;;;;;;16.95;12.43;;;11.60;99.90;;;;;;4959194;28;20923;-81
2022/06/01 00:37:05;;;;;;;15.50;12.50;;;11.60;99.90;;;;;;4939854;28;20421;-81
2022/06/01 00:39:32;;;;;;;14.80;12.40;;;;;;;;;;4944024;28;20458;-81
2022/06/01 00:42:15;;;;;;;16.30;12.82;;;;;;;;;;4952016;28;20500;-81
2022/06/01 00:44:41;;;;;;;17.77;12.50;;;;;;;;;;4956009;28;20427;-81
2022/06/01 00:47:08;;;;;;;15.50;13.55;;;;;;;;;;4948076;28;20467;-81
2022/06/01 00:49:36;;;;;;;17.63;13.73;;;;;;;;;;4947563;28;20522;-81
2022/06/01 00:52:02;;;;;;;15.70;13.48;;;;;;;;;;4959293;28;20445;-81
2022/06/01 00:54:28;;;;;;;15.43;12.52;;;;;;;;;;4950670;28;20427;-81
2022/06/01 00:56:58;;;;;;;16.13;13.50;;;11.30;99.90;;;;;;4952895;28;20917;-81
2022/06/01 00:59:30;;;;;;;15.43;13.20;;;11.50;99.90;;;;;;4949961;28;20495;-81
2022/06/01 01:01:56;;;;;;;15.23;13.45;;;;;;;;;;4943135;28;20429;-81
2022/06/01 01:04:23;;;;;;;19.00;14.37;;;;;;;;;;4947503;28;21035;-81
2022/06/01 01:06:49;;;;;;;17.40;14.20;;;;;;;;;;4927799;28;20430;-80
2022/06/01 01:09:16;;;;;;;16.50;14.50;;;11.60;99.90;;;;;;4938471;28;20428;-81
2022/06/01 01:12:05;;;;;;;15.70;13.77;;;11.50;99.90;;;;;;4936998;28;20438;-81
2022/06/01 01:14:35;;;;;;;19.92;14.98;;;11.60;99.90;;;;;;4952448;28;20462;-81
2022/06/01 01:17:04;;;;;;;17.08;14.18;;;11.60;99.90;;;;;;4953603;28;20427;-81
2022/06/01 01:19:40;;;;;;;18.63;14.45;;;11.60;99.90;;;;;;4951195;28;20427;-81
2022/06/01 01:22:22;;;;;;;16.08;14.13;;;;;;;;;;4936663;28;20442;-81
2022/06/01 01:25:07;;;;;;;20.30;14.82;;;;;;;;;;4953293;28;21051;-81
2022/06/01 01:27:33;;;;;;;19.13;14.70;;;;;;;;;;4943705;28;20795;-81
2022/06/01 01:29:59;;;;;;;17.63;15.32;;;;;;;;;;4922612;28;20463;-81
2022/06/01 01:32:25;;;;;;;18.40;15.45;;;;;;;;;;4948195;28;20432;-80
2022/06/01 01:34:51;;;;;;;18.20;15.32;;;;;;;;;;4936013;28;20440;-80
2022/06/01 01:37:25;;;;;;;18.35;16.17;;;11.50;99.90;;;;;;4949092;28;20423;-80
2022/06/01 01:39:52;;;;;;;19.33;16.00;;;;;;;;;;4948716;28;20434;-80
2022/06/01 01:42:19;;;;;;;20.27;17.63;;;;;;;;;;4950558;28;20926;-80
2022/06/01 01:44:52;;;;;;;25.42;18.55;;;;;;;;;;4940217;28;20429;-80
2022/06/01 01:47:19;;;;;;;26.95;20.92;;;;;;;;;;4937490;28;20527;-80
2022/06/01 01:49:46;;;;;;;27.45;20.98;;;;;;;;;;4937347;28;20455;-80
2022/06/01 01:52:16;;;;;;;22.90;19.00;;;11.30;99.90;;;;;;4953392;28;20443;-80
2022/06/01 01:54:51;;;;;;;23.50;18.20;;;;;;;;;;4936172;28;20841;-80
2022/06/01 01:57:40;;;;;;;21.42;17.83;;;11.40;99.90;;;;;;4951495;28;21457;-81
2022/06/01 02:00:24;;;;;;;22.15;18.55;;;;;;;;;;4928455;28;20634;-80
2022/06/01 02:03:19;;;;;;;20.98;17.20;;;11.30;99.90;;;;;;4951403;28;20575;-80
2022/06/01 02:08:31;;;;;;;20.60;17.70;;;;;;;;;;4950641;28;20582;-80
2022/06/01 02:14:12;;;;;;;20.00;17.30;;;;;;;;;;4949916;28;20436;-81
2022/06/01 02:16:46;;;;;;;21.67;17.60;;;;;;;;;;4929887;28;20441;-81
2022/06/01 02:19:22;;;;;;;21.58;18.17;;;;;;;;;;4953788;28;20511;-81
2022/06/01 02:21:54;;;;;;;21.85;18.55;;;11.20;99.90;;;;;;4951084;28;20500;-81
2022/06/01 02:24:22;;;;;;;21.88;18.48;;;10.90;99.90;;;;;;4938826;28;20436;-81
2022/06/01 02:26:50;;;;;;;20.48;18.23;;;10.80;99.90;;;;;;4949563;28;20510;-81
2022/06/01 02:29:22;;;;;;;21.70;18.60;;;;;;;;;;4927568;28;20428;-80
2022/06/01 02:31:50;;;;;;;22.63;18.80;;;;;;;;;;4935330;28;20476;-80
2022/06/01 02:34:17;;;;;;;20.85;18.23;;;;;;;;;;4930179;28;20443;-80
2022/06/01 02:36:44;;;;;;;22.60;19.13;;;10.80;99.90;;;;;;4966446;28;20913;-81
2022/06/01 02:39:14;;;;;;;24.48;18.63;;;10.80;99.90;;;;;;4948809;28;20443;-80
2022/06/01 02:44:25;;;;;;;24.07;18.30;;;;;;;;;;4948519;28;20435;-80
2022/06/01 02:46:51;;;;;;;21.55;18.73;;;;;;;;;;4937866;28;20441;-80
2022/06/01 02:49:20;;;;;;;22.50;19.38;;;;;;;;;;4948761;28;20955;-80
2022/06/01 02:51:46;;;;;;;22.50;18.97;;;;;;;;;;4951828;28;20512;-81
2022/06/01 02:54:13;;;;;;;24.58;18.67;;;;;;;;;;4935166;28;21041;-80
2022/06/01 02:56:39;;;;;;;22.92;18.73;;;;;;;;;;4951242;28;20433;-80
2022/06/01 02:59:05;;;;;;;21.67;18.50;;;;;;;;;;4956642;28;20425;-80
2022/06/01 03:01:32;;;;;;;21.77;18.25;;;;;;;;;;4941228;28;20460;-80
2022/06/01 03:03:58;;;;;;;21.45;18.67;;;;;;;;;;4937893;28;20436;-80
2022/06/01 03:06:24;;;;;;;23.17;18.63;;;;;;;;;;4940343;28;20459;-80
2022/06/01 03:08:50;;;;;;;21.90;19.08;;;;;;;;;;4946291;28;20437;-80
2022/06/01 03:11:17;;;;;;;22.65;19.27;;;;;;;;;;4936049;29;20483;-80
2022/06/01 03:13:43;;;;;;;23.70;19.70;;;;;;;;;;4939986;28;20443;-80
2022/06/01 03:16:09;;;;;;;21.23;18.92;;;;;;;;;;4949438;28;20436;-81
2022/06/01 03:18:35;;;;;;;23.20;19.88;;;;;;;;;;4930600;29;20476;-80
2022/06/01 03:21:02;;;;;;;23.40;20.30;;;;;;;;;;4948861;28;20425;-82
2022/06/01 03:23:28;;;;;;;24.53;21.20;;;;;;;;;;4952500;28;20935;-80
2022/06/01 03:25:55;;;;;;;24.83;21.70;;;;;;;;;;4937947;29;20433;-80
2022/06/01 03:28:22;;;;;;;24.55;21.42;;;;;;;;;;4940716;28;20433;-80
2022/06/01 03:30:48;;;;;;;26.83;22.60;;;;;;;;;;4941800;29;20458;-80
2022/06/01 03:33:14;;;;;;;26.15;22.00;;;;;;;;;;4935699;28;20430;-80
2022/06/01 03:35:40;;;;;;;26.60;22.27;;;;;;;;;;4953247;28;20482;-80
2022/06/01 03:38:07;;;;;;;25.25;22.17;;;;;;;;;;4953680;28;20798;-80
2022/06/01 03:40:35;;;;;;;25.02;22.00;;;10.70;99.90;;;;;;4941021;28;20414;-81
2022/06/01 03:43:02;;;;;;;24.42;21.83;;;;;;;;;;4952807;28;20970;-81
2022/06/01 03:48:14;;;;;;;25.17;22.48;;;;;;;;;;4950543;28;20429;-80
2022/06/01 03:50:41;;;;;;;25.90;22.77;;;10.90;99.90;;;;;;4933439;29;20999;-80
2022/06/01 03:53:07;;;;;;;25.95;22.00;;;;;;;;;;4944932;28;20437;-81
2022/06/01 03:55:34;;;;;;;26.95;23.73;;;10.90;99.90;;;;;;4945234;28;20918;-81
2022/06/01 03:58:01;;;;;;;27.63;22.88;;;;;;;;;;4952186;28;20466;-80
2022/06/01 04:00:27;;;;;;;25.90;22.97;;;10.50;99.90;;;;;;4952712;28;20528;-81
2022/06/01 04:02:54;;;;;;;25.98;22.60;;;10.90;99.90;;;;;;4935535;29;20454;-80
2022/06/01 04:05:21;;;;;;;25.10;22.50;;;10.90;99.90;;;;;;4935798;28;20442;-81
2022/06/01 04:07:47;;;;;;;26.70;22.45;;;;;;;;;;4932760;29;20452;-80
2022/06/01 04:10:14;;;;;;;27.95;23.83;;;;;;;;;;4950735;28;20433;-81
2022/06/01 04:12:40;;;;;;;25.55;22.75;;;;;;;;;;4948387;28;20417;-81
2022/06/01 04:15:08;;;;;;;27.95;23.25;;;;;;;;;;4923517;29;20849;-81
2022/06/01 04:17:35;;;;;;;26.10;23.30;;;;;;;;;;4932589;28;20412;-82
2022/06/01 04:20:01;;;;;;;26.77;23.13;;;;;;;;;;4935611;28;20443;-81
2022/06/01 04:22:27;;;;;;;27.77;23.23;;;;;;;;;;4950586;28;20422;-81
2022/06/01 04:24:53;;;;;;;26.90;22.65;;;;;;;;;;4951739;28;20918;-81
2022/06/01 04:27:19;;;;;;;26.88;22.90;;;;;;;;;;4934843;29;20422;-81
2022/06/01 04:29:45;;;;;;;25.65;22.67;;;;;;;;;;4937598;28;20442;-81
2022/06/01 04:32:14;;;;;;;25.98;22.92;;;11.10;99.90;;;;;;4951133;28;20757;-81
2022/06/01 04:34:40;;;;;;;25.80;23.02;;;;;;;;;;4932841;29;20527;-81
2022/06/01 04:37:06;;;;;;;26.08;23.10;;;;;;;;;;4951496;28;20426;-81
2022/06/01 04:39:33;;;;;;;26.00;22.95;;;;;;;;;;4950622;28;20433;-80
2022/06/01 04:41:59;;;;;;;27.48;23.90;;;;;;;;;;4947027;28;20418;-80
2022/06/01 04:44:26;;;;;;;26.52;22.52;;;;;;;;;;4940287;28;20587;-81
2022/06/01 04:46:52;;;;;;;25.92;22.10;;;;;;;;;;4936712;28;20434;-81
2022/06/01 04:49:18;;;;;;;24.70;22.10;;;;;;;;;;4951384;28;20474;-81
2022/06/01 04:51:44;;;;;;;24.60;21.25;;;;;;;;;;4948276;28;20961;-81
2022/06/01 04:54:10;;;;;;;24.13;20.85;;;;;;;;;;4946869;28;20443;-81
2022/06/01 04:56:36;;;;;;;22.85;20.35;;;;;;;;;;4934370;29;20505;-80
2022/06/01 04:59:02;;;;;;;23.42;20.65;;;;;;;;;;4934049;28;20436;-80
2022/06/01 05:01:28;;;;;;;22.75;19.63;;;;;;;;;;4945087;28;20585;-80
2022/06/01 05:03:54;;;;;;;22.88;19.77;;;;;;;;;;4956493;28;20441;-80
2022/06/01 05:06:20;;;;;;;22.30;19.80;;;;;;;;;;4962618;28;20433;-81
2022/06/01 05:08:46;;;;;;;22.05;19.65;;;;;;;;;;4939166;28;20434;-81
2022/06/01 05:11:13;;;;;;;24.17;20.65;;;;;;;;;;4931294;29;20803;-81
2022/06/01 05:13:39;;;;;;;24.13;21.08;;;;;;;;;;4934883;29;20435;-81
2022/06/01 05:16:06;;;;;;;24.02;21.42;;;;;;;;;;4927558;28;20509;-78
2022/06/01 05:18:32;;;;;;;24.77;20.70;;;;;;;;;;4930180;28;20437;-80
2022/06/01 05:20:59;;;;;;;23.75;20.25;;;;;;;;;;4933787;28;20436;-81
2022/06/01 05:23:25;;;;;;;23.50;20.40;;;;;;;;;;4933593;29;20515;-81
2022/06/01 05:25:53;;;;;;;21.83;19.52;;;;;;;;;;4934848;29;20448;-80
2022/06/01 05:28:24;;;;;;;21.10;18.08;;;;;;;;;;4948992;28;20934;-80
2022/06/01 05:30:50;;;;;;;18.85;16.85;;;;;;;;;;4932784;29;20454;-79
2022/06/01 05:33:16;;;;;;;18.35;15.70;;;;;;;;;;4945406;28;20799;-81
2022/06/01 05:35:42;;;;;;;17.05;14.90;;;;;;;;;;4946968;28;20434;-77
2022/06/01 05:38:08;;;;;;;18.40;16.27;;;;;;;;;;4934126;28;20434;-77
2022/06/01 05:40:35;;;;;;;16.58;14.60;;;;;;;;;;4935115;28;20471;-77
2022/06/01 05:43:07;;;;;;;16.63;14.13;;;;;;;;;;4946316;28;20433;-77
2022/06/01 05:45:33;;;;;;;15.30;13.35;;;;;;;;;;4936189;28;20463;-77
2022/06/01 05:47:59;;;;;;;15.95;13.80;;;;;;;;;;4928698;29;20508;-77
2022/06/01 05:50:25;;;;;;;17.05;15.23;;;;;;;;;;4937602;28;20437;-77
2022/06/01 05:52:51;;;;;;;14.18;12.55;;;;;;;;;;4927220;29;20493;-78
2022/06/01 05:55:17;;;;;;;15.70;13.40;;;;;;;;;;4937356;28;20432;-80
2022/06/01 05:57:44;;;;;;;15.17;13.47;;;;;;;;;;4927245;29;20425;-81
2022/06/01 06:00:11;;;;;;;15.77;12.02;;;;;;;;;;4938798;29;20903;-78
2022/06/01 06:02:38;;;;;;;14.18;12.38;;;12.70;99.90;;;;;;4944270;28;20476;-78
2022/06/01 06:06:11;;;;;;;13.13;10.80;;;;;;;;;;4952045;28;20564;-81
2022/06/01 06:07:51;;;;;;;11.33;9.33;;;;;;;;;;4941390;28;21109;-82
2022/06/01 06:10:17;;;;;;;11.32;8.93;;;;;;;;;;4944588;28;20441;-83
2022/06/01 06:12:44;;;;;;;11.43;10.23;;;;;;;;;;4951253;28;20431;-82
2022/06/01 06:15:10;;;;;;;13.02;10.82;;;;;;;;;;4944911;28;20525;-83
2022/06/01 06:17:36;;;;;;;16.45;12.48;;;;;;;;;;4966278;28;20442;-82
2022/06/01 06:20:03;;;;;;;18.48;14.25;;;;;;;;;;4943970;28;20463;-84
2022/06/01 06:22:29;;;;;;;17.17;12.80;;;;;;;;;;4965336;28;20431;-83
2022/06/01 06:24:55;;;;;;;15.50;12.38;;;;;;;;;;4940492;28;20493;-82
2022/06/01 06:27:21;;;;;;;18.55;13.73;;;;;;;;;;4929525;29;20514;-83
2022/06/01 06:29:47;;;;;;;18.03;14.10;;;;;;;;;;4935643;28;20513;-82
2022/06/01 06:32:13;;;;;;;17.38;14.18;;;;;;;;;;4920868;29;20432;-82
2022/06/01 06:34:39;;;;;;;19.33;15.45;;;;;;;;;;4952002;28;20437;-82
2022/06/01 06:37:05;;;;;;;18.52;14.70;;;;;;;;;;4951445;28;20425;-82
2022/06/01 06:39:31;;;;;;;18.55;15.02;;;;;;;;;;4951101;28;20421;-78
2022/06/01 06:41:57;;;;;;;18.93;15.73;;;;;;;;;;4944874;28;20464;-82
2022/06/01 06:44:23;;;;;;;17.67;14.88;;;;;;;;;;4949157;28;20783;-82
2022/06/01 06:46:49;;;;;;;21.95;17.20;;;;;;;;;;4933579;29;20899;-81
2022/06/01 06:49:16;;;;;;;21.55;17.38;;;;;;;;;;4932048;29;20439;-77
2022/06/01 06:51:42;;;;;;;22.33;17.80;;;;;;;;;;4948907;28;20437;-76
2022/06/01 06:54:08;;;;;;;19.90;16.92;;;;;;;;;;4945310;28;20434;-78
2022/06/01 06:56:35;;;;;;;23.40;18.92;;;;;;;;;;4950168;28;20462;-79
2022/06/01 06:59:05;;;;;;;23.58;19.13;;;;;;;;;;4944766;28;21649;-77
2022/06/01 07:01:31;;;;;;;24.58;19.35;;;;;;;;;;4958142;28;20500;-78
2022/06/01 07:03:57;;;;;;;24.80;21.48;;;;;;;;;;4948667;28;20465;-77
2022/06/01 07:06:23;;;;;;;26.05;22.40;;;12.60;99.90;;;;;;4948721;28;20492;-77
2022/06/01 07:08:52;;;;;;;28.00;23.33;;;;;;;;;;4949380;28;20813;-77
2022/06/01 07:11:19;;;;;;;26.77;22.67;;;;;;;;;;4928898;28;20577;-77
2022/06/01 07:13:47;;;;;;;25.25;21.55;;;13.50;99.90;;;;;;4946057;28;20437;-78
2022/06/01 07:16:17;;;;;;;24.40;20.75;;;;;;;;;;4948200;28;20457;-76
2022/06/01 07:18:45;;;;;;;22.40;20.00;;;14.00;99.90;;;;;;4950441;28;20432;-77
2022/06/01 07:21:14;;;;;;;23.05;19.70;;;;;;;;;;4936579;28;20440;-77
2022/06/01 07:23:40;;;;;;;19.88;17.67;;;;;;;;;;4941185;28;20426;-78
2022/06/01 07:26:10;;;;;;;23.47;19.53;;;14.10;99.90;;;;;;4945795;28;20440;-78
2022/06/01 07:28:36;;;;;;;22.45;18.80;;;;;;;;;;4935748;29;20426;-78
2022/06/01 07:31:04;;;;;;;25.15;22.27;;;;;;;;;;4946539;29;20465;-79
2022/06/01 07:33:30;;;;;;;23.02;19.95;;;13.50;99.90;;;;;;4932236;28;20438;-80
2022/06/01 07:35:57;;;;;;;20.52;18.30;;;;;;;;;;4930642;29;20473;-80
2022/06/01 07:43:56;;;;;;;24.75;20.48;;;;;;;;;;4952009;28;20558;-78
2022/06/01 07:46:22;;;;;;;23.17;20.02;;;;;;;;;;4945099;28;20425;-78
2022/06/01 07:48:49;;;;;;;25.58;21.60;;;;;;;;;;4949380;28;20517;-78
2022/06/01 07:51:16;;;;;;;21.27;18.75;;;;;;;;;;4948680;28;20933;-78
2022/06/01 07:53:42;;;;;;;21.23;18.20;;;;;;;;;;4947519;28;20536;-78
2022/06/01 07:56:09;;;;;;;23.65;21.05;;;;;;;;;;4946373;28;20494;-81
2022/06/01 07:58:35;;;;;;;23.63;20.90;;;13.40;99.90;;;;;;4946938;28;20480;-77
2022/06/01 08:01:01;;;;;;;22.33;18.95;;;13.50;99.90;;;;;;4948331;28;20427;-78
2022/06/01 08:03:28;;;;;;;23.55;20.63;;;;;;;;;;4953072;28;20445;-78
2022/06/01 08:05:54;;;;;;;24.10;19.80;;;;;;;;;;4948938;28;20437;-78
2022/06/01 08:08:20;;;;;;;23.02;19.65;;;;;;;;;;4953537;28;20446;-78
2022/06/01 08:10:46;;;;;;;23.33;20.40;;;;;;;;;;4929503;29;20478;-78
2022/06/01 08:13:14;;;;;;;22.00;19.13;;;;;;;;;;4931450;28;20460;-77
2022/06/01 08:15:50;;;;;;;22.40;18.65;;;;;;;;;;4946179;28;20430;-77
2022/06/01 08:18:17;;;;;;;23.85;18.83;;;;;;;;;;4923352;28;20430;-77
2022/06/01 08:20:44;;;;;;;21.17;18.97;;;;;;;;;;4949448;28;20875;-77
2022/06/01 08:23:10;;;;;;;18.50;16.20;;;;;;;;;;4929136;28;20464;-77
2022/06/01 08:25:36;;;;;;;18.08;16.17;;;14.10;99.90;;;;;;4949874;28;20457;-77
2022/06/01 08:28:04;;;;;;;17.65;15.38;;;14.30;99.90;;;;;;4950934;28;21049;-78
2022/06/01 08:30:33;;;;;;;18.88;15.95;;;14.30;99.90;;;;;;4948946;28;20453;-77
2022/06/01 08:32:59;;;;;;;17.97;15.90;;;;;;;;;;4948405;28;20439;-76
2022/06/01 08:35:29;;;;;;;17.02;15.18;;;15.00;99.90;;;;;;4942136;28;20438;-78
2022/06/01 08:37:56;;;;;;;14.40;12.90;;;15.20;99.90;;;;;;4936510;28;20436;-77
2022/06/01 08:40:24;;;;;;;14.82;13.32;;;;;;;;;;4943718;28;20433;-77
2022/06/01 08:42:57;;;;;;;14.68;13.18;;;15.70;99.90;;;;;;4952106;28;20426;-77
2022/06/01 08:45:24;;;;;;;11.88;10.32;;;15.90;99.90;;;;;;4951944;28;20441;-77
2022/06/01 08:47:50;;;;;;;12.73;10.70;;;;;;;;;;4950784;28;20512;-77
2022/06/01 08:50:19;;;;;;;13.18;11.88;;;15.70;99.90;;;;;;4949421;28;20438;-77
2022/06/01 08:52:45;;;;;;;14.25;12.75;;;;;;;;;;4943525;28;20430;-77
2022/06/01 08:55:11;;;;;;;11.02;9.88;;;;;;;;;;4916278;29;20430;-77
2022/06/01 08:57:56;;;;;;;8.05;6.93;;;16.30;99.90;;;;;;4947390;28;20426;-77
2022/06/01 09:00:27;;;;;;;6.93;6.13;;;16.50;99.90;;;;;;4948429;28;20441;-76
2022/06/01 09:03:21;;;;;;;6.60;5.68;;;16.20;99.90;;;;;;4940564;28;20426;-77
2022/06/01 09:05:56;;;;;;;7.90;6.63;;;15.90;99.90;;;;;;4951485;28;20512;-76
2022/06/01 09:08:32;;;;;;;7.07;6.18;;;;;;;;;;4948494;28;20438;-77
2022/06/01 09:11:01;;;;;;;8.70;6.75;;;;;;;;;;4927069;29;20437;-77
2022/06/01 09:13:49;;;;;;;7.60;6.60;;;15.50;99.90;;;;;;4933841;29;20500;-76
2022/06/01 09:16:22;;;;;;;9.48;7.72;;;15.20;99.90;;;;;;4941553;28;20482;-77
2022/06/01 09:18:50;;;;;;;8.25;7.32;;;15.00;99.90;;;;;;4929708;29;20428;-76
2022/06/01 09:24:36;;;;;;;8.75;7.18;;;;;;;;;;4944341;28;20513;-76
2022/06/01 09:27:12;;;;;;;9.67;7.40;;;14.50;99.90;;;;;;4950732;28;20465;-76
2022/06/01 09:29:46;;;;;;;8.23;7.25;;;;;;;;;;4948847;28;20434;-76
2022/06/01 09:32:58;;;;;;;8.53;7.20;;;14.80;99.90;;;;;;4930592;29;20446;-77
2022/06/01 09:35:28;;;;;;;8.93;7.75;;;15.30;99.90;;;;;;4917899;29;20451;-77
2022/06/01 09:37:54;;;;;;;8.38;6.97;;;;;;;;;;4935712;28;20421;-76
2022/06/01 09:40:32;;;;;;;7.57;6.70;;;15.60;99.90;;;;;;4945300;28;20448;-76
2022/06/01 09:43:00;;;;;;;7.50;6.35;;;16.50;99.90;;;;;;4950214;28;20437;-76
2022/06/01 09:45:37;;;;;;;7.35;6.03;;;16.70;99.90;;;;;;4932146;29;20430;-77
2022/06/01 09:48:10;;;;;;;10.57;7.17;;;;;;;;;;4946926;28;20806;-76
2022/06/01 09:50:36;;;;;;;5.65;4.80;;;;;;;;;;4943430;28;20438;-76
2022/06/01 09:53:19;;;;;;;5.30;4.20;;;17.10;99.90;;;;;;4936415;29;20414;-76
2022/06/01 09:55:59;;;;;;;5.10;4.13;;;17.30;99.90;;;;;;4947895;28;20445;-77
2022/06/01 10:07:21;;;;;;;5.97;4.05;;;;;;;;;;4948093;28;20443;-76
2022/06/01 10:09:52;;;;;;;5.70;4.43;;;16.70;99.90;;;;;;4941494;28;20429;-77
2022/06/01 10:12:42;;;;;;;6.10;4.80;;;16.70;99.90;;;;;;4946474;28;20851;-76
2022/06/01 10:15:33;;;;;;;6.50;5.80;;;16.70;99.90;;;;;;4931959;29;20500;-76
2022/06/01 10:18:06;;;;;;;8.18;7.00;;;16.30;99.90;;;;;;4947265;28;20923;-76
2022/06/01 10:20:38;;;;;;;7.63;6.40;;;16.10;99.90;;;;;;4946250;28;20431;-76
2022/06/01 10:23:11;;;;;;;7.00;6.30;;;16.10;99.90;;;;;;4932950;28;20407;-76
2022/06/01 10:25:52;;;;;;;7.68;6.88;;;;;;;;;;4938959;28;20438;-76
2022/06/01 10:28:33;;;;;;;7.72;6.93;;;15.40;99.90;;;;;;4950105;28;20925;-77
2022/06/01 10:31:04;;;;;;;5.72;4.57;;;15.10;99.90;;;;;;4930252;28;20434;-77
2022/06/01 10:33:51;;;;;;;5.90;4.50;;;;;;;;;;4943680;28;20488;-76
2022/06/01 10:36:41;;;;;;;5.72;5.03;;;14.30;99.90;;;;;;4930716;29;20590;-77
2022/06/01 10:39:10;;;;;;;6.82;4.30;;;;;;;;;;4932656;29;20480;-76
2022/06/01 10:41:42;;;;;;;4.05;3.30;;;13.40;99.90;;;;;;4949279;28;20426;-77
2022/06/01 10:44:11;;;;;;;4.03;2.80;;;;;;;;;;4935395;28;20469;-77
2022/06/01 10:46:53;;;;;;;3.20;2.40;;;;;;;;;;4925343;29;20551;-77
2022/06/01 10:49:22;;;;;;;2.97;1.90;;;;;;;;;;4942493;28;20421;-79
2022/06/01 10:52:00;;;;;;;2.58;1.42;;;;;;;;;;4935216;29;20442;-79
2022/06/01 10:54:47;;;;;;;4.40;1.27;;;;;;;;;;4947197;28;20472;-79
2022/06/01 10:57:20;;;;;;;2.80;1.13;;;12.60;99.90;;;;;;4945496;28;20465;-80
2022/06/01 10:59:47;;;;;;;3.30;1.10;;;;;;;;;;4950014;28;20515;-79
2022/06/01 11:02:17;;;;;;;3.90;1.10;;;;;;;;;;4939136;28;20762;-78
2022/06/01 11:05:17;;;;;;;5.15;1.60;;;12.70;99.90;;;;;;4953412;28;20434;-79
2022/06/01 11:07:50;;;;;;;2.50;1.00;;;;;;;;;;4940569;28;20518;-78
2022/06/01 11:10:16;;;;;;;1.75;1.10;;;;;;;;;;4954255;28;20436;-78
2022/06/01 11:12:47;;;;;;;1.65;0.93;;;;;;;;;;4969537;28;20437;-79
2022/06/01 11:15:19;;;;;;;1.70;0.90;;;;;;;;;;4963956;28;20443;-81
2022/06/01 11:17:46;;;;;;;2.22;0.98;;;;;;;;;;4954044;28;20435;-80
2022/06/01 11:20:24;;;;;;;2.10;1.20;;;;;;;;;;4950819;28;20442;-79
2022/06/01 11:23:17;;;;;;;2.38;1.30;;;;;;;;;;4939188;28;20515;-79
2022/06/01 11:26:15;;;;;;;1.57;1.07;;;13.40;99.90;;;;;;4942381;28;20489;-80
2022/06/01 11:28:44;;;;;;;1.50;1.02;;;;;;;;;;4955270;28;20459;-80
2022/06/01 11:31:10;;;;;;;1.30;0.98;;;;;;;;;;4956389;28;20460;-80
2022/06/01 11:33:41;;;;;;;1.83;0.90;;;;;;;;;;4956310;28;20437;-79
2022/06/01 11:36:07;;;;;;;1.75;1.00;;;;;;;;;;4950105;28;20431;-80
2022/06/01 11:38:43;;;;;;;1.00;0.90;;;15.30;99.90;;;;;;4954461;28;20440;-79
2022/06/01 11:41:24;;;;;;;0.95;0.80;;;15.40;99.90;;;;;;4953129;28;20827;-80
2022/06/01 11:43:55;;;;;;;2.03;1.60;;;15.60;99.90;;;;;;4952924;28;20436;-80
2022/06/01 11:46:35;;;;;;;3.55;2.20;;;15.80;99.90;;;;;;4938999;28;20434;-80
2022/06/01 11:49:10;;;;;;;3.90;2.70;;;;;;;;;;4952404;28;20433;-80
2022/06/01 11:51:38;;;;;;;3.47;2.30;;;16.20;99.90;;;;;;4970121;28;20420;-79
2022/06/01 11:54:09;;;;;;;3.25;2.58;;;16.10;99.90;;;;;;4955806;28;20491;-79
2022/06/01 11:56:59;;;;;;;4.32;3.00;;;15.80;99.90;;;;;;4951650;28;20427;-79
2022/06/01 11:59:28;;;;;;;3.85;3.20;;;;;;;;;;4968942;28;20509;-79
2022/06/01 12:01:58;;;;;;;5.10;3.67;;;15.90;99.90;;;;;;4950867;28;20427;-79
2022/06/01 12:04:40;;;;;;;3.80;3.28;;;15.70;99.90;;;;;;4955925;28;20467;-79
2022/06/01 12:07:10;;;;;;;4.90;4.35;;;;;;;;;;4945880;28;20465;-79
2022/06/01 12:09:36;;;;;;;4.00;2.03;;;;;;;;;;4955648;28;20440;-78
2022/06/01 12:12:03;;;;;;;1.73;1.30;;;14.80;99.90;;;;;;4969902;28;20466;-79
2022/06/01 12:14:47;;;;;;;1.70;1.20;;;;;;;;;;4957582;28;20440;-79
2022/06/01 12:17:22;;;;;;;1.52;1.05;;;;;;;;;;4949382;28;20450;-78
2022/06/01 12:19:49;;;;;;;3.38;1.33;;;;;;;;;;4965880;28;20520;-79
2022/06/01 12:30:55;;;;;;;2.97;1.70;;;;;;;;;;4953490;28;20963;-81
2022/06/01 12:33:22;;;;;;;3.60;1.90;;;;;;;;;;4933429;28;20488;-81
2022/06/01 12:35:49;;;;;;;3.30;2.30;;;;;;;;;;4951889;28;20767;-81
2022/06/01 12:38:22;;;;;;;3.03;2.08;;;;;;;;;;4970155;28;20437;-81
2022/06/01 12:41:14;;;;;;;3.20;2.00;;;12.70;99.90;;;;;;4942215;28;20432;-81
2022/06/01 12:43:45;;;;;;;2.63;1.83;;;;;;;;;;4957932;28;20468;-81
2022/06/01 12:46:22;;;;;;;3.95;2.30;;;;;;;;;;4955488;28;20431;-81
2022/06/01 12:48:48;;;;;;;3.08;2.20;;;;;;;;;;4945800;28;21026;-81
2022/06/01 12:51:15;;;;;;;2.90;1.92;;;;;;;;;;4939013;28;20444;-81
2022/06/01 12:53:44;;;;;;;3.28;2.25;;;;;;;;;;4954138;28;20440;-82
2022/06/01 12:56:15;;;;;;;2.60;2.00;;;;;;;;;;4969041;28;20428;-82
2022/06/01 12:58:42;;;;;;;2.92;2.10;;;;;;;;;;4937151;28;20515;-82
2022/06/01 13:01:09;;;;;;;2.20;1.73;;;;;;;;;;4939017;28;20450;-81
2022/06/01 13:03:35;;;;;;;3.60;2.28;;;;;;;;;;4949148;28;20508;-82
2022/06/01 13:06:07;;;;;;;2.70;2.10;;;;;;;;;;4933745;28;20859;-82
2022/06/01 13:08:37;;;;;;;2.33;1.83;;;14.50;99.90;;;;;;4939436;28;20424;-81
2022/06/01 13:11:14;;;;;;;2.30;1.80;;;;;;;;;;4937334;28;20520;-81
2022/06/01 13:13:42;;;;;;;2.70;2.00;;;;;;;;;;4964715;28;20667;-79
2022/06/01 13:16:08;;;;;;;2.40;1.80;;;;;;;;;;4930631;28;20441;-80
2022/06/01 13:18:38;;;;;;;2.42;1.60;;;;;;;;;;4967467;28;20435;-78
2022/06/01 13:21:10;;;;;;;2.50;1.70;;;14.80;99.90;;;;;;4953986;28;20422;-77
2022/06/01 13:23:37;;;;;;;2.00;1.30;;;;;;;;;;4949769;28;20430;-77
2022/06/01 13:26:06;;;;;;;2.40;1.40;;;14.80;99.90;;;;;;4948826;28;20475;-77
2022/06/01 13:28:33;;;;;;;2.40;1.40;;;;;;;;;;4953902;28;20464;-76
2022/06/01 13:30:59;;;;;;;2.00;1.33;;;14.80;99.90;;;;;;4968500;28;20911;-77
2022/06/01 13:33:31;;;;;;;1.55;1.27;;;;;;;;;;4924709;28;20451;-77
2022/06/01 13:35:59;;;;;;;1.30;1.10;;;15.00;99.90;;;;;;4940147;28;21027;-77
2022/06/01 13:38:34;;;;;;;2.10;1.20;;;;;;;;;;4947273;28;20420;-79
2022/06/01 13:41:34;;;;;;;2.42;1.40;;;15.50;99.90;;;;;;4965368;28;20426;-79
2022/06/01 13:44:05;;;;;;;1.95;1.40;;;;;;;;;;4941031;28;20911;-79
2022/06/01 13:46:35;;;;;;;1.30;1.10;;;16.50;99.90;;;;;;4971231;28;20423;-80
2022/06/01 13:49:04;;;;;;;1.70;1.20;;;16.70;99.90;;;;;;4954416;28;20542;-80
2022/06/01 13:51:34;;;;;;;1.63;1.13;;;16.60;99.90;;;;;;4955777;28;20424;-79
2022/06/01 13:54:01;;;;;;;1.58;1.00;;;17.20;99.90;;;;;;4967612;28;20432;-78
2022/06/01 13:56:44;;;;;;;2.05;1.30;;;17.60;99.90;;;;;;4945343;28;20487;-79
2022/06/01 13:59:31;;;;;;;1.52;1.20;;;17.70;99.90;;;;;;4946848;28;20842;-79
2022/06/01 14:02:22;;;;;;;1.55;1.30;;;18.20;99.90;;;;;;4950322;28;20515;-79
2022/06/01 14:04:59;;;;;;;1.50;1.20;;;18.50;99.90;;;;;;4936487;28;20442;-78
2022/06/01 14:07:25;;;;;;;2.10;1.40;;;18.80;99.90;;;;;;4949718;28;20438;-79
2022/06/01 14:09:53;;;;;;;2.78;1.70;;;16.50;99.90;;;;;;4950803;28;20797;-78
2022/06/01 14:12:26;;;;;;;2.33;1.70;;;18.90;99.90;;;;;;4968435;28;20442;-80
2022/06/01 14:14:55;;;;;;;2.20;1.60;;;18.40;99.90;;;;;;4951524;28;20433;-78
2022/06/01 14:17:23;;;;;;;2.03;1.67;;;18.30;99.90;;;;;;4947694;28;20451;-80
2022/06/01 14:19:50;;;;;;;2.53;1.70;;;;;;;;;;4959646;28;20412;-80
2022/06/01 14:22:16;;;;;;;2.83;1.58;;;17.70;99.90;;;;;;4956487;28;20531;-80
2022/06/01 14:30:12;;;;;;;4.00;2.63;;;;;;;;;;4943825;28;20434;-80
2022/06/01 14:32:43;;;;;;;4.03;3.08;;;;;;;;;;4949591;28;20510;-79
2022/06/01 14:35:10;;;;;;;4.35;3.30;;;;;;;;;;4952278;28;20436;-82
2022/06/01 14:37:36;;;;;;;5.63;4.20;;;;;;;;;;4976743;28;20427;-80
2022/06/01 14:40:02;;;;;;;5.90;5.25;;;;;;;;;;4966249;28;20423;-81
2022/06/01 14:42:28;;;;;;;7.35;5.50;;;;;;;;;;4938290;28;20460;-83
2022/06/01 14:44:54;;;;;;;7.80;6.47;;;;;;;;;;4920522;28;20435;-81
2022/06/01 14:47:21;;;;;;;9.27;7.05;;;;;;;;;;4914563;28;20457;-80